Time;durP1;ratioP1;P1;durP2;ratioP2;P2;SDS_P1;SDS_P2;PMS_P1;PMS_P2;Temp;Humidity;BMP_temperature;BMP_pressure;BME280_temperature;BME280_humidity;BME280_pressure;Samples;Min_cycle;Max_cycle;Signal;HPM_P1;HPM_P2
2022/02/18 07:04:40;;;;;;;16.77;5.20;;;;;;;2.40;75.66;98399.97;4611441;74;22885;-88
2022/02/18 07:10:43;;;;;;;10.23;5.08;;;;;;;2.66;74.28;98410.48;4527936;77;21540;-88
2022/02/18 07:16:44;;;;;;;10.93;3.83;;;;;;;2.94;74.02;98420.26;4527044;77;21028;-88
2022/02/18 07:22:45;;;;;;;10.80;4.00;;;;;;;3.24;74.16;98406.71;4528682;77;21033;-89
2022/02/18 07:28:47;;;;;;;9.38;3.70;;;;;;;3.67;73.80;98413.37;4332427;77;34312;-90
2022/02/18 07:34:48;;;;;;;10.72;4.58;;;;;;;4.21;73.42;98403.08;4216374;81;37257;-89
2022/02/18 07:40:49;;;;;;;9.68;3.40;;;;;;;4.71;72.24;98406.51;4307417;81;21062;-89
2022/02/18 07:46:52;;;;;;;11.22;3.58;;;;;;;5.30;72.57;98413.11;4310309;81;21095;-89
2022/02/18 07:52:54;;;;;;;10.00;2.72;;;;;;;5.84;71.59;98426.92;4314076;81;20919;-88
2022/02/18 07:58:56;;;;;;;11.60;2.40;;;;;;;6.34;71.15;98422.66;4250715;82;21700;-90
2022/02/18 08:04:58;;;;;;;7.47;2.95;;;;;;;6.65;70.18;98427.12;4286999;82;21011;-89
2022/02/18 08:10:59;;;;;;;8.73;2.35;;;;;;;6.84;69.64;98431.14;4287159;82;21018;-89
2022/02/18 08:17:00;;;;;;;11.15;2.95;;;;;;;7.18;69.43;98427.41;4285809;82;21078;-90
2022/02/18 08:23:02;;;;;;;14.10;2.50;;;;;;;7.35;68.03;98444.58;4284502;82;21672;-89
2022/02/18 08:29:03;;;;;;;9.98;2.65;;;;;;;7.65;67.52;98434.52;4322565;81;21000;-89
2022/02/18 08:35:06;;;;;;;7.60;2.12;;;;;;;7.98;64.65;98435.12;4285328;82;21081;-89
2022/02/18 08:41:09;;;;;;;8.43;2.10;;;;;;;8.54;64.45;98442.61;4323225;81;20938;-88
2022/02/18 08:47:10;;;;;;;6.50;2.60;;;;;;;8.93;63.66;98443.76;4302334;82;21109;-89
2022/02/18 08:53:12;;;;;;;6.30;2.10;;;;;;;9.29;61.26;98443.45;4305668;82;21552;-89
2022/02/18 08:59:13;;;;;;;8.93;2.33;;;;;;;9.63;61.00;98457.17;4304689;82;21058;-89
2022/02/18 09:05:16;;;;;;;8.13;2.37;;;;;;;9.85;59.52;98452.61;4304853;82;21612;-88
2022/02/18 09:11:19;;;;;;;9.23;2.42;;;;;;;10.34;58.62;98464.56;4286096;82;21034;-88
2022/02/18 09:17:21;;;;;;;7.42;1.82;;;;;;;10.78;58.66;98454.70;4286401;82;21129;-89
2022/02/18 09:23:23;;;;;;;8.85;2.27;;;;;;;10.95;56.93;98460.79;4285610;82;21043;-89
2022/02/18 09:29:26;;;;;;;10.95;2.40;;;;;;;11.40;56.32;98452.39;4322099;81;21089;-89
2022/02/18 09:35:28;;;;;;;7.25;2.17;;;;;;;11.73;54.53;98456.10;4304119;82;21121;-89
2022/02/18 09:41:30;;;;;;;7.75;1.82;;;;;;;11.66;52.91;98451.41;4304340;82;21094;-90
2022/02/18 09:47:33;;;;;;;10.68;2.65;;;;;;;12.34;51.93;98456.27;4323157;81;21565;-89
2022/02/18 09:53:35;;;;;;;9.58;2.65;;;;;;;12.64;51.51;98463.96;4304678;82;21038;-89
2022/02/18 09:59:37;;;;;;;5.37;2.15;;;;;;;12.84;47.55;98453.27;4303231;82;21055;-89
2022/02/18 10:05:39;;;;;;;8.83;2.47;;;;;;;12.67;48.81;98459.64;4248040;83;21034;-89
2022/02/18 10:11:56;;;;;;;7.83;2.35;;;;;;;12.16;48.32;98461.64;4249240;83;21596;-90
2022/02/18 10:18:00;;;;;;;7.10;2.37;;;;;;;11.67;49.43;98461.77;4247699;83;21006;-90
2022/02/18 10:24:13;;;;;;;7.30;2.50;;;;;;;11.78;48.01;98459.20;4258964;82;21581;-88
2022/02/18 10:30:28;;;;;;;7.42;2.00;;;;;;;12.39;47.70;98464.67;4258987;82;21037;-89
2022/02/18 10:36:43;;;;;;;7.03;2.30;;;;;;;13.07;48.80;98462.55;4257885;82;21046;-88
2022/02/18 10:42:51;;;;;;;10.43;1.95;;;;;;;12.84;48.04;98462.30;4259440;82;21057;-89
2022/02/18 10:48:54;;;;;;;7.55;2.98;;;;;;;12.73;46.88;98454.71;4259585;82;21541;-88
2022/02/18 10:54:57;;;;;;;6.65;2.20;;;;;;;12.86;45.72;98457.77;4258968;82;21081;-90
2022/02/18 11:01:23;;;;;;;6.35;2.87;;;;;;;11.88;45.88;98452.14;4261199;82;21050;-89
2022/02/18 11:07:25;;;;;;;8.35;2.22;;;;;;;11.06;45.69;98447.31;4257922;82;21003;-89
2022/02/18 11:13:27;;;;;;;8.90;2.27;;;;;;;10.70;46.05;98435.33;4258844;82;21014;-89
2022/02/18 11:19:30;;;;;;;6.17;1.85;;;;;;;11.14;46.72;98438.50;4258691;82;21081;-90
2022/02/18 11:25:32;;;;;;;12.58;2.42;;;;;;;11.97;46.74;98426.44;4258305;82;21069;-90
2022/02/18 11:31:45;;;;;;;7.58;1.87;;;;;;;12.80;45.68;98427.77;4258697;82;21045;-89
2022/02/18 11:38:07;;;;;;;9.70;1.80;;;;;;;12.85;44.24;98436.38;4258929;84;20998;-91
2022/02/18 11:44:12;;;;;;;6.12;2.00;;;;;;;12.77;44.18;98435.44;4259422;82;21581;-90
2022/02/18 11:50:18;;;;;;;8.33;2.25;;;;;;;12.73;43.56;98420.38;4247544;82;21038;-89
2022/02/18 11:56:42;;;;;;;12.98;2.72;;;;;;;12.63;43.71;98405.53;4258580;82;21030;-91
2022/02/18 12:02:56;;;;;;;18.32;3.47;;;;;;;12.20;44.03;98407.55;4279509;81;21089;-90
2022/02/18 12:08:59;;;;;;;15.23;3.50;;;;;;;11.83;44.14;98387.51;4249231;82;21736;-90
2022/02/18 12:15:14;;;;;;;8.33;3.27;;;;;;;11.44;44.60;98377.22;4249497;82;21098;-91
2022/02/18 12:21:16;;;;;;;9.23;2.00;;;;;;;11.30;44.34;98367.66;4252000;82;21051;-90
2022/02/18 12:27:29;;;;;;;12.40;3.25;;;;;;;11.19;44.20;98361.41;4245045;82;21613;-90
2022/02/18 12:33:30;;;;;;;6.30;1.90;;;;;;;11.03;44.72;98348.70;4245108;82;21101;-91
2022/02/18 12:39:44;;;;;;;5.92;1.40;;;;;;;10.86;44.27;98348.13;4244713;82;21652;-90
2022/02/18 12:45:50;;;;;;;7.80;2.20;;;;;;;10.56;43.95;98320.36;4247482;82;21081;-91
2022/02/18 12:52:11;;;;;;;17.48;3.45;;;;;;;10.38;43.64;98310.77;4245352;82;21598;-89
2022/02/18 12:58:15;;;;;;;11.15;3.20;;;;;;;10.34;43.64;98295.52;4239458;82;21042;-89
2022/02/18 13:04:24;;;;;;;15.55;3.33;;;;;;;10.25;43.58;98287.72;4244877;82;21074;-91
2022/02/18 13:10:36;;;;;;;11.35;2.72;;;;;;;10.34;43.18;98281.84;4232041;82;21049;-91
2022/02/18 13:16:42;;;;;;;8.10;2.90;;;;;;;10.31;43.36;98276.58;4227629;83;21055;-90
2022/02/18 13:22:45;;;;;;;16.50;3.85;;;;;;;10.20;42.54;98264.84;4213856;83;21588;-92
2022/02/18 13:28:47;;;;;;;13.80;2.98;;;;;;;10.20;43.44;98259.38;4187977;83;21114;-90
2022/02/18 13:34:50;;;;;;;6.15;1.80;;;;;;;10.26;43.61;98241.98;4235213;83;21110;-90
2022/02/18 13:41:12;;;;;;;6.60;2.12;;;;;;;10.24;43.00;98239.63;4221694;83;21069;-90
2022/02/18 13:47:15;;;;;;;13.30;3.65;;;;;;;10.35;43.68;98240.41;4187466;83;21069;-90
2022/02/18 13:53:18;;;;;;;8.75;2.30;;;;;;;10.31;43.52;98232.81;4188978;83;21497;-90
2022/02/18 13:59:28;;;;;;;6.12;2.05;;;;;;;10.28;43.48;98215.81;4205807;83;21178;-90
2022/02/18 14:05:30;;;;;;;8.10;3.05;;;;;;;10.21;43.61;98195.89;4184536;82;21078;-91
2022/02/18 14:11:31;;;;;;;13.48;4.62;;;;;;;10.07;43.89;98179.45;4213825;83;21064;-91
2022/02/18 14:17:33;;;;;;;12.93;3.00;;;;;;;9.95;44.16;98187.45;4119411;84;31243;-90
2022/02/18 14:23:35;;;;;;;9.50;2.55;;;;;;;9.87;44.63;98170.84;4202072;84;21123;-90
2022/02/18 14:29:36;;;;;;;13.43;3.77;;;;;;;9.83;44.41;98172.02;4201719;83;21088;-90
2022/02/18 14:35:44;;;;;;;14.50;3.83;;;;;;;9.77;44.73;98170.84;4221444;83;21161;-90
2022/02/18 14:42:14;;;;;;;13.22;2.77;;;;;;;9.61;44.68;98162.22;4243617;79;53659;-91
2022/02/18 14:48:10;;;;;;;10.25;3.08;;;;;;;9.42;44.99;98156.53;4210769;83;21071;-91
2022/02/18 14:54:14;;;;;;;13.83;4.10;;;;;;;9.21;45.58;98140.08;4194943;84;21102;-90
2022/02/18 15:00:16;;;;;;;13.10;4.55;;;;;;;9.00;46.27;98132.63;4161332;84;21082;-89
2022/02/18 15:06:18;;;;;;;17.57;5.45;;;;;;;8.81;46.71;98128.05;4292403;82;21610;-89
2022/02/18 15:12:19;;;;;;;17.42;5.12;;;;;;;8.62;47.21;98122.89;4293242;81;21030;-90
2022/02/18 15:18:24;;;;;;;12.33;3.55;;;;;;;8.44;47.66;98117.94;4296649;82;21102;-90
2022/02/18 15:24:26;;;;;;;10.55;3.52;;;;;;;8.28;47.97;98105.97;4215345;84;22570;-90
2022/02/18 15:36:47;;;;;;;16.02;4.35;;;;;;;7.82;48.72;98093.36;4286327;82;21002;-91
2022/02/18 15:42:49;;;;;;;21.23;7.83;;;;;;;7.65;49.02;98102.75;4280745;82;21021;-89
2022/02/18 15:48:50;;;;;;;22.70;7.92;;;;;;;7.52;49.30;98094.66;4288413;82;22023;-89
2022/02/18 15:54:52;;;;;;;20.12;8.10;;;;;;;7.40;49.35;98084.84;4291695;82;21572;-90
2022/02/18 16:00:53;;;;;;;23.05;7.03;;;;;;;7.33;50.78;98086.73;4204165;83;21030;-93
2022/02/18 16:06:54;;;;;;;13.95;6.62;;;;;;;7.21;50.94;98077.45;4150024;84;22079;-90
2022/02/18 16:12:56;;;;;;;14.50;5.10;;;;;;;7.28;52.00;98059.84;4218913;84;21106;-90
2022/02/18 16:18:57;;;;;;;14.80;4.58;;;;;;;7.28;52.18;98054.40;4219571;84;21006;-90
2022/02/18 16:24:59;;;;;;;12.05;4.35;;;;;;;7.43;53.31;98043.25;4225268;84;21537;-89
2022/02/18 16:31:00;;;;;;;12.98;3.92;;;;;;;7.58;53.11;98047.64;4224191;83;21019;-91
2022/02/18 16:37:08;;;;;;;7.92;3.33;;;;;;;7.70;53.46;98041.13;4223861;83;21608;-90
2022/02/18 16:43:09;;;;;;;;;;;;;;;7.78;54.47;98035.33;4213216;83;21527;-89
2022/02/18 16:49:11;;;;;;;13.35;3.70;;;;;;;7.79;54.89;98028.73;4210551;83;20595;-90
2022/02/18 16:55:12;;;;;;;9.68;3.58;;;;;;;7.79;55.17;98028.73;4214789;83;21109;-91
2022/02/18 17:01:14;;;;;;;12.13;3.30;;;;;;;7.74;55.63;98019.55;4225463;83;21066;-89
2022/02/18 17:07:16;;;;;;;14.40;4.65;;;;;;;7.75;56.17;98016.25;4278311;82;21061;-89
2022/02/18 17:13:18;;;;;;;13.25;4.42;;;;;;;7.71;56.95;98011.34;4269256;82;21022;-89
2022/02/18 17:19:19;;;;;;;14.45;3.35;;;;;;;7.61;57.26;98003.91;4297388;82;21660;-90
2022/02/18 17:25:21;;;;;;;10.10;4.35;;;;;;;7.54;59.90;97992.38;4290977;82;21050;-90
2022/02/18 17:31:27;;;;;;;10.35;3.67;;;;;;;7.38;60.28;97965.20;4214856;84;21577;-89
2022/02/18 17:37:30;;;;;;;11.33;3.95;;;;;;;7.15;60.03;97943.66;4298794;82;21207;-89
2022/02/18 17:43:31;;;;;;;12.60;4.03;;;;;;;7.00;60.61;97912.04;4297610;82;21714;-90
2022/02/18 17:49:33;;;;;;;11.60;3.72;;;;;;;6.90;62.38;97894.28;4277146;82;21112;-90
2022/02/18 17:55:35;;;;;;;10.80;3.35;;;;;;;6.88;62.98;97859.30;4287409;82;21659;-90
2022/02/18 18:01:36;;;;;;;12.58;4.80;;;;;;;6.84;62.50;97838.09;4171127;81;9999698;-90
2022/02/18 18:07:37;;;;;;;14.55;4.95;;;;;;;6.87;63.09;97812.06;4259550;82;21078;-90
2022/02/18 18:13:38;;;;;;;11.50;4.75;;;;;;;6.89;63.68;97794.80;4249620;83;22417;-90
2022/02/18 18:19:41;;;;;;;14.65;4.78;;;;;;;6.88;63.12;97791.28;4248948;83;22123;-90
2022/02/18 18:25:42;;;;;;;9.70;4.75;;;;;;;6.90;63.12;97781.38;4223428;84;21042;-89
2022/02/18 18:31:43;;;;;;;14.10;4.67;;;;;;;6.88;63.42;97785.05;4261582;83;21105;-90
2022/02/18 18:37:47;;;;;;;14.58;5.17;;;;;;;6.84;63.79;97767.94;4270846;83;21066;-91
2022/02/18 18:43:48;;;;;;;10.20;4.53;;;;;;;6.74;63.71;97753.11;4264752;83;21122;-90
2022/02/18 18:49:50;;;;;;;15.58;5.50;;;;;;;6.67;64.05;97740.81;4263636;83;21034;-90
2022/02/18 18:55:51;;;;;;;13.48;4.95;;;;;;;6.68;64.01;97722.57;4250829;83;22617;-90
2022/02/18 19:01:52;;;;;;;15.85;6.00;;;;;;;6.68;65.12;97699.45;4244708;83;21061;-90
2022/02/18 19:07:54;;;;;;;14.85;5.08;;;;;;;6.66;65.22;97683.52;4242986;83;22625;-90
2022/02/18 19:13:58;;;;;;;12.95;5.28;;;;;;;6.58;65.44;97666.20;4242528;83;21586;-89
2022/02/18 19:19:58;;;;;;;12.43;5.37;;;;;;;6.65;65.88;97629.52;4231323;83;21612;-89
2022/02/18 19:26:00;;;;;;;11.93;4.45;;;;;;;6.82;66.07;97636.98;4239253;83;22337;-89
2022/02/18 19:32:02;;;;;;;11.75;4.67;;;;;;;6.88;66.48;97640.88;4279400;82;21027;-90
2022/02/18 19:38:07;;;;;;;12.80;4.22;;;;;;;7.07;66.62;97616.08;4270904;82;21098;-89
2022/02/18 19:44:08;;;;;;;14.10;5.33;;;;;;;7.21;66.72;97595.70;4237840;84;21113;-90
2022/02/18 19:50:10;;;;;;;12.78;4.83;;;;;;;7.32;66.69;97591.05;4334168;81;21044;-89
2022/02/18 19:56:11;;;;;;;13.50;5.40;;;;;;;7.37;66.87;97570.26;4331628;82;21045;-90
2022/02/18 20:02:13;;;;;;;15.05;5.85;;;;;;;7.44;67.24;97551.98;4307466;82;22722;-89
2022/02/18 20:08:18;;;;;;;20.40;8.48;;;;;;;7.44;66.90;97530.77;4304095;81;21750;-89
2022/02/18 20:14:17;;;;;;;22.80;10.50;;;;;;;7.36;67.08;97501.41;4215904;84;21119;-89
2022/02/18 20:20:19;;;;;;;27.10;11.53;;;;;;;7.31;67.96;97483.34;4293373;82;21224;-90
2022/02/18 20:26:24;;;;;;;27.70;11.53;;;;;;;7.15;67.53;97483.73;4279270;81;21116;-90
2022/02/18 20:32:25;;;;;;;21.25;8.23;;;;;;;6.85;67.76;97456.69;4264745;82;21105;-90
2022/02/18 20:38:27;;;;;;;19.52;7.78;;;;;;;6.69;68.09;97449.50;4189526;84;21066;-90
2022/02/18 20:44:28;;;;;;;18.75;7.92;;;;;;;6.54;68.49;97451.41;4264458;82;21458;-89
2022/02/18 20:50:31;;;;;;;12.75;5.55;;;;;;;6.59;70.00;97425.20;4266519;82;22071;-89
2022/02/18 20:56:32;;;;;;;12.82;4.45;;;;;;;7.04;70.21;97425.03;4191660;84;21078;-89
2022/02/18 21:02:35;;;;;;;8.83;3.55;;;;;;;7.31;71.42;97409.86;4268097;82;21057;-89
2022/02/18 21:08:36;;;;;;;8.15;3.55;;;;;;;7.76;71.19;97415.78;4270949;81;21166;-91
2022/02/18 21:14:37;;;;;;;12.63;3.67;;;;;;;8.18;70.83;97436.05;4287298;82;21042;-91
2022/02/18 21:20:39;;;;;;;8.05;3.08;;;;;;;8.52;70.91;97417.98;4273377;81;21058;-90
2022/02/18 21:26:41;;;;;;;7.75;3.75;;;;;;;8.90;70.30;97410.72;4265369;81;21070;-89
2022/02/18 21:32:43;;;;;;;7.80;3.20;;;;;;;9.11;69.71;97387.36;4285409;82;21069;-89
2022/02/18 21:38:46;;;;;;;7.53;2.95;;;;;;;9.36;69.06;97372.89;4189754;84;21569;-90
2022/02/18 21:44:51;;;;;;;5.78;3.27;;;;;;;9.57;67.57;97369.91;4265139;82;21014;-89
2022/02/18 21:50:51;;;;;;;7.58;3.30;;;;;;;9.72;67.20;97349.47;4192634;84;21099;-89
2022/02/18 21:56:52;;;;;;;9.05;2.95;;;;;;;9.74;66.42;97327.20;4266142;82;21904;-90
2022/02/18 22:02:54;;;;;;;9.38;3.27;;;;;;;9.71;65.75;97338.95;4267854;82;21066;-89
2022/02/18 22:08:56;;;;;;;6.75;2.85;;;;;;;9.71;65.40;97327.41;4294656;82;21619;-90
2022/02/18 22:14:57;;;;;;;8.25;3.35;;;;;;;9.83;64.05;97295.46;4292706;82;21546;-90
2022/02/18 22:20:59;;;;;;;7.12;2.77;;;;;;;9.94;64.06;97292.00;4286987;81;21081;-89
2022/02/18 22:27:00;;;;;;;10.50;3.22;;;;;;;9.99;64.18;97294.86;4287576;82;21097;-90
2022/02/18 22:33:02;;;;;;;7.17;3.15;;;;;;;10.15;62.90;97295.81;4291929;81;21046;-89
2022/02/18 22:39:04;;;;;;;9.35;3.25;;;;;;;10.29;62.79;97298.95;4294278;82;21081;-90
2022/02/18 22:45:08;;;;;;;7.58;2.83;;;;;;;10.34;62.19;97310.78;4289197;82;21687;-90
2022/02/18 22:51:10;;;;;;;6.67;3.05;;;;;;;10.43;62.12;97295.39;4288401;82;21026;-90
2022/02/18 22:57:11;;;;;;;10.10;3.12;;;;;;;10.44;62.33;97295.59;4292035;82;21015;-89
2022/02/18 23:03:12;;;;;;;7.85;3.02;;;;;;;10.23;62.92;97319.73;4288852;82;21113;-90
2022/02/18 23:09:13;;;;;;;8.88;2.90;;;;;;;10.16;63.01;97298.75;4293753;81;37470;-90
2022/02/18 23:15:15;;;;;;;6.12;2.92;;;;;;;10.16;62.89;97302.07;4310633;81;21113;-91
2022/02/18 23:21:17;;;;;;;9.65;3.35;;;;;;;10.15;63.02;97310.10;4309891;81;21073;-91
2022/02/18 23:27:18;;;;;;;8.28;2.58;;;;;;;10.12;62.91;97304.84;4308664;81;21058;-90
2022/02/18 23:33:19;;;;;;;6.90;2.70;;;;;;;10.29;62.13;97301.70;4309348;81;21098;-91
2022/02/18 23:39:21;;;;;;;6.92;2.65;;;;;;;10.49;61.94;97307.41;4307580;81;21127;-88
2022/02/18 23:45:22;;;;;;;6.62;2.22;;;;;;;10.62;61.19;97304.28;4309085;81;21093;-91
2022/02/18 23:51:24;;;;;;;7.28;2.20;;;;;;;10.73;61.06;97306.84;4311175;81;21046;-91
2022/02/18 23:57:27;;;;;;;5.58;2.22;;;;;;;10.95;60.06;97300.61;4303279;81;21068;-90
